sensor_id;sensor_type;location;lat;lon;timestamp;pressure;altitude;pressure_sealevel;temperature;humidity
52319;BME280;38258;51.148;14.068;2022-09-17T00:02:12;97273.50;;;8.55;100.00
52319;BME280;38258;51.148;14.068;2022-09-17T00:04:39;97264.13;;;8.49;100.00
52319;BME280;38258;51.148;14.068;2022-09-17T00:07:07;97270.91;;;8.55;100.00
52319;BME280;38258;51.148;14.068;2022-09-17T00:09:34;97263.78;;;8.58;100.00
52319;BME280;38258;51.148;14.068;2022-09-17T00:12:01;97265.69;;;8.55;100.00
52319;BME280;38258;51.148;14.068;2022-09-17T00:14:27;97264.34;;;8.67;100.00
52319;BME280;38258;51.148;14.068;2022-09-17T00:16:54;97262.66;;;8.66;100.00
52319;BME280;38258;51.148;14.068;2022-09-17T00:19:21;97260.88;;;8.66;100.00
52319;BME280;38258;51.148;14.068;2022-09-17T00:21:49;97260.84;;;8.68;100.00
52319;BME280;38258;51.148;14.068;2022-09-17T00:24:18;97260.66;;;8.72;100.00
52319;BME280;38258;51.148;14.068;2022-09-17T00:26:46;97258.78;;;8.76;100.00
52319;BME280;38258;51.148;14.068;2022-09-17T00:29:13;97265.63;;;8.79;100.00
52319;BME280;38258;51.148;14.068;2022-09-17T00:31:40;97249.44;;;8.70;100.00
52319;BME280;38258;51.148;14.068;2022-09-17T00:34:07;97264.53;;;8.84;100.00
52319;BME280;38258;51.148;14.068;2022-09-17T00:36:35;97266.09;;;8.88;100.00
52319;BME280;38258;51.148;14.068;2022-09-17T00:39:03;97265.28;;;8.88;100.00
52319;BME280;38258;51.148;14.068;2022-09-17T00:41:32;97259.50;;;8.80;100.00
52319;BME280;38258;51.148;14.068;2022-09-17T00:44:37;97277.41;;;8.89;100.00
52319;BME280;38258;51.148;14.068;2022-09-17T00:46:49;97272.91;;;8.93;100.00
52319;BME280;38258;51.148;14.068;2022-09-17T00:49:19;97273.06;;;8.89;100.00
52319;BME280;38258;51.148;14.068;2022-09-17T00:51:52;97273.31;;;8.82;100.00
52319;BME280;38258;51.148;14.068;2022-09-17T00:54:21;97293.56;;;8.75;100.00
52319;BME280;38258;51.148;14.068;2022-09-17T00:56:49;97288.03;;;8.60;100.00
52319;BME280;38258;51.148;14.068;2022-09-17T00:59:17;97284.88;;;8.52;100.00
52319;BME280;38258;51.148;14.068;2022-09-17T01:01:45;97285.94;;;8.46;100.00
52319;BME280;38258;51.148;14.068;2022-09-17T01:04:16;97284.72;;;8.31;100.00
52319;BME280;38258;51.148;14.068;2022-09-17T01:06:47;97277.31;;;8.20;100.00
52319;BME280;38258;51.148;14.068;2022-09-17T01:09:25;97257.84;;;8.07;100.00
52319;BME280;38258;51.148;14.068;2022-09-17T01:12:10;97276.56;;;8.17;100.00
52319;BME280;38258;51.148;14.068;2022-09-17T01:14:52;97269.63;;;8.17;100.00
52319;BME280;38258;51.148;14.068;2022-09-17T01:17:27;97264.25;;;8.22;100.00
52319;BME280;38258;51.148;14.068;2022-09-17T01:23:15;97269.75;;;8.14;100.00
52319;BME280;38258;51.148;14.068;2022-09-17T01:25:56;97260.16;;;8.15;100.00
52319;BME280;38258;51.148;14.068;2022-09-17T01:28:31;97265.38;;;8.15;100.00
52319;BME280;38258;51.148;14.068;2022-09-17T01:31:10;97266.22;;;8.15;100.00
52319;BME280;38258;51.148;14.068;2022-09-17T01:33:43;97266.78;;;8.24;100.00
52319;BME280;38258;51.148;14.068;2022-09-17T01:36:19;97255.94;;;8.12;100.00
52319;BME280;38258;51.148;14.068;2022-09-17T01:38:53;97263.50;;;8.18;100.00
52319;BME280;38258;51.148;14.068;2022-09-17T01:41:30;97267.16;;;8.14;100.00
52319;BME280;38258;51.148;14.068;2022-09-17T01:44:02;97267.16;;;8.14;100.00
52319;BME280;38258;51.148;14.068;2022-09-17T01:46:37;97274.69;;;8.22;100.00
52319;BME280;38258;51.148;14.068;2022-09-17T01:49:06;97260.16;;;8.15;100.00
52319;BME280;38258;51.148;14.068;2022-09-17T01:51:37;97264.47;;;8.16;100.00
52319;BME280;38258;51.148;14.068;2022-09-17T01:54:10;97269.50;;;8.20;100.00
52319;BME280;38258;51.148;14.068;2022-09-17T01:56:41;97266.78;;;8.24;100.00
52319;BME280;38258;51.148;14.068;2022-09-17T01:59:13;97266.78;;;8.24;100.00
52319;BME280;38258;51.148;14.068;2022-09-17T02:01:45;97257.50;;;8.16;100.00
52319;BME280;38258;51.148;14.068;2022-09-17T02:04:16;97271.03;;;8.26;100.00
52319;BME280;38258;51.148;14.068;2022-09-17T02:06:50;97268.44;;;8.26;100.00
52319;BME280;38258;51.148;14.068;2022-09-17T02:09:20;97268.31;;;8.29;100.00
52319;BME280;38258;51.148;14.068;2022-09-17T02:11:51;97275.13;;;8.33;100.00
52319;BME280;38258;51.148;14.068;2022-09-17T02:14:22;97255.56;;;8.21;100.00
52319;BME280;38258;51.148;14.068;2022-09-17T02:16:54;97280.22;;;8.37;100.00
52319;BME280;38258;51.148;14.068;2022-09-17T02:19:26;97286.19;;;8.40;100.00
52319;BME280;38258;51.148;14.068;2022-09-17T02:22:00;97274.22;;;8.34;100.00
52319;BME280;38258;51.148;14.068;2022-09-17T02:24:34;97266.50;;;8.31;100.00
52319;BME280;38258;51.148;14.068;2022-09-17T02:27:05;97277.25;;;8.46;100.00
52319;BME280;38258;51.148;14.068;2022-09-17T02:29:36;97278.13;;;8.46;100.00
52319;BME280;38258;51.148;14.068;2022-09-17T02:32:05;97281.69;;;8.44;100.00
52319;BME280;38258;51.148;14.068;2022-09-17T02:34:32;97281.00;;;8.39;100.00
52319;BME280;38258;51.148;14.068;2022-09-17T02:36:59;97280.22;;;8.37;100.00
52319;BME280;38258;51.148;14.068;2022-09-17T02:39:27;97282.47;;;8.46;100.00
52319;BME280;38258;51.148;14.068;2022-09-17T02:42:01;97291.69;;;8.56;100.00
52319;BME280;38258;51.148;14.068;2022-09-17T02:44:36;97286.59;;;8.53;100.00
52319;BME280;38258;51.148;14.068;2022-09-17T02:50:17;97284.66;;;8.58;100.00
52319;BME280;38258;51.148;14.068;2022-09-17T02:52:56;97280.50;;;8.53;100.00
52319;BME280;38258;51.148;14.068;2022-09-17T02:55:31;97277.13;;;8.51;100.00
52319;BME280;38258;51.148;14.068;2022-09-17T02:58:11;97285.63;;;8.56;100.00
52319;BME280;38258;51.148;14.068;2022-09-17T03:00:41;97283.97;;;8.53;100.00
52319;BME280;38258;51.148;14.068;2022-09-17T03:03:13;97276.72;;;8.61;100.00
52319;BME280;38258;51.148;14.068;2022-09-17T03:05:43;97287.31;;;8.57;100.00
52319;BME280;38258;51.148;14.068;2022-09-17T03:08:12;97280.28;;;8.59;100.00
52319;BME280;38258;51.148;14.068;2022-09-17T03:10:39;97281.19;;;8.58;100.00
52319;BME280;38258;51.148;14.068;2022-09-17T03:13:06;97284.72;;;8.57;100.00
52319;BME280;38258;51.148;14.068;2022-09-17T03:15:33;97277.56;;;8.62;100.00
52319;BME280;38258;51.148;14.068;2022-09-17T03:18:00;97281.13;;;8.59;100.00
52319;BME280;38258;51.148;14.068;2022-09-17T03:20:28;97287.06;;;8.63;100.00
52319;BME280;38258;51.148;14.068;2022-09-17T03:22:55;97293.25;;;8.60;100.00
52319;BME280;38258;51.148;14.068;2022-09-17T03:25:22;97291.50;;;8.61;100.00
52319;BME280;38258;51.148;14.068;2022-09-17T03:27:48;97294.00;;;8.64;100.00
52319;BME280;38258;51.148;14.068;2022-09-17T03:30:17;97294.78;;;8.66;100.00
52319;BME280;38258;51.148;14.068;2022-09-17T03:32:44;97306.22;;;8.62;100.00
52319;BME280;38258;51.148;14.068;2022-09-17T03:35:11;97301.06;;;8.60;100.00
52319;BME280;38258;51.148;14.068;2022-09-17T03:37:39;97302.59;;;8.66;100.00
52319;BME280;38258;51.148;14.068;2022-09-17T03:40:07;97302.59;;;8.66;100.00
52319;BME280;38258;51.148;14.068;2022-09-17T03:42:34;97295.81;;;8.62;100.00
52319;BME280;38258;51.148;14.068;2022-09-17T03:45:01;97301.75;;;8.66;100.00
52319;BME280;38258;51.148;14.068;2022-09-17T03:47:28;97279.50;;;8.57;100.00
52319;BME280;38258;51.148;14.068;2022-09-17T03:49:55;97304.50;;;8.62;100.00
52319;BME280;38258;51.148;14.068;2022-09-17T03:52:22;97286.97;;;8.66;100.00
52319;BME280;38258;51.148;14.068;2022-09-17T03:54:50;97304.13;;;8.72;100.00
52319;BME280;38258;51.148;14.068;2022-09-17T03:57:17;97299.03;;;8.69;100.00
52319;BME280;38258;51.148;14.068;2022-09-17T03:59:43;97306.81;;;8.70;100.00
52319;BME280;38258;51.148;14.068;2022-09-17T04:02:10;97299.00;;;8.70;100.00
52319;BME280;38258;51.148;14.068;2022-09-17T04:04:37;97299.81;;;8.71;100.00
52319;BME280;38258;51.148;14.068;2022-09-17T04:07:04;97301.50;;;8.72;100.00
52319;BME280;38258;51.148;14.068;2022-09-17T04:09:31;97295.50;;;8.70;100.00
52319;BME280;38258;51.148;14.068;2022-09-17T04:11:59;97291.16;;;8.70;100.00
52319;BME280;38258;51.148;14.068;2022-09-17T04:14:26;97299.16;;;8.66;100.00
52319;BME280;38258;51.148;14.068;2022-09-17T04:16:53;97286.25;;;8.62;100.00
52319;BME280;38258;51.148;14.068;2022-09-17T04:19:19;97295.63;;;8.67;100.00
52319;BME280;38258;51.148;14.068;2022-09-17T04:21:46;97298.78;;;8.75;100.00
52319;BME280;38258;51.148;14.068;2022-09-17T04:24:13;97299.03;;;8.69;100.00
52319;BME280;38258;51.148;14.068;2022-09-17T04:26:40;97302.44;;;8.71;100.00
52319;BME280;38258;51.148;14.068;2022-09-17T04:29:08;97300.91;;;8.65;100.00
52319;BME280;38258;51.148;14.068;2022-09-17T04:31:35;97301.59;;;8.70;100.00
52319;BME280;38258;51.148;14.068;2022-09-17T04:34:02;97298.25;;;8.67;100.00
52319;BME280;38258;51.148;14.068;2022-09-17T04:36:29;97303.41;;;8.68;100.00
52319;BME280;38258;51.148;14.068;2022-09-17T04:38:56;97293.88;;;8.67;100.00
52319;BME280;38258;51.148;14.068;2022-09-17T04:41:22;97293.09;;;8.65;100.00
52319;BME280;38258;51.148;14.068;2022-09-17T04:43:49;97296.59;;;8.64;100.00
52319;BME280;38258;51.148;14.068;2022-09-17T04:46:17;97287.66;;;8.71;100.00
52319;BME280;38258;51.148;14.068;2022-09-17T04:48:44;97284.59;;;8.60;100.00
52319;BME280;38258;51.148;14.068;2022-09-17T04:51:11;97298.19;;;8.68;100.00
52319;BME280;38258;51.148;14.068;2022-09-17T04:53:38;97291.34;;;8.66;100.00
52319;BME280;38258;51.148;14.068;2022-09-17T04:56:05;97291.38;;;8.64;100.00
52319;BME280;38258;51.148;14.068;2022-09-17T04:58:31;97300.91;;;8.65;100.00
52319;BME280;38258;51.148;14.068;2022-09-17T05:00:58;97289.81;;;8.60;100.00
52319;BME280;38258;51.148;14.068;2022-09-17T05:03:26;97299.31;;;8.61;100.00
52319;BME280;38258;51.148;14.068;2022-09-17T05:05:53;97309.28;;;8.73;100.00
52319;BME280;38258;51.148;14.068;2022-09-17T05:08:20;97311.16;;;8.70;100.00
52319;BME280;38258;51.148;14.068;2022-09-17T05:10:49;97316.31;;;8.71;100.00
52319;BME280;38258;51.148;14.068;2022-09-17T05:13:16;97287.63;;;8.47;100.00
52319;BME280;38258;51.148;14.068;2022-09-17T05:15:43;97312.22;;;8.64;100.00
52319;BME280;38258;51.148;14.068;2022-09-17T05:18:10;97307.94;;;8.63;100.00
52319;BME280;38258;51.148;14.068;2022-09-17T05:20:39;97317.75;;;8.56;100.00
52319;BME280;38258;51.148;14.068;2022-09-17T05:23:05;97322.75;;;8.62;100.00
52319;BME280;38258;51.148;14.068;2022-09-17T05:25:32;97317.53;;;8.62;100.00
52319;BME280;38258;51.148;14.068;2022-09-17T05:27:59;97322.94;;;8.56;100.00
52319;BME280;38258;51.148;14.068;2022-09-17T05:30:26;97325.69;;;8.53;100.00
52319;BME280;38258;51.148;14.068;2022-09-17T05:32:58;97336.22;;;8.48;100.00
52319;BME280;38258;51.148;14.068;2022-09-17T05:35:25;97325.88;;;8.47;100.00
52319;BME280;38258;51.148;14.068;2022-09-17T05:37:57;97328.53;;;8.45;100.00
52319;BME280;38258;51.148;14.068;2022-09-17T05:40:24;97317.31;;;8.43;100.00
52319;BME280;38258;51.148;14.068;2022-09-17T05:42:51;97323.44;;;8.42;100.00
52319;BME280;38258;51.148;14.068;2022-09-17T05:45:17;97321.28;;;8.30;100.00
52319;BME280;38258;51.148;14.068;2022-09-17T05:47:44;97323.72;;;8.34;100.00
52319;BME280;38258;51.148;14.068;2022-09-17T05:50:11;97331.59;;;8.33;100.00
52319;BME280;38258;51.148;14.068;2022-09-17T05:52:38;97332.38;;;8.35;100.00
52319;BME280;38258;51.148;14.068;2022-09-17T05:55:07;97324.16;;;8.22;100.00
52319;BME280;38258;51.148;14.068;2022-09-17T05:57:33;97324.91;;;8.26;100.00
52319;BME280;38258;51.148;14.068;2022-09-17T06:00:01;97329.25;;;8.25;100.00
52319;BME280;38258;51.148;14.068;2022-09-17T06:02:38;97331.13;;;8.21;100.00
52319;BME280;38258;51.148;14.068;2022-09-17T06:05:06;97320.84;;;8.17;100.00
52319;BME280;38258;51.148;14.068;2022-09-17T06:07:34;97327.53;;;8.26;100.00
52319;BME280;38258;51.148;14.068;2022-09-17T06:10:01;97301.16;;;8.10;100.00
52319;BME280;38258;51.148;14.068;2022-09-17T06:12:29;97315.28;;;8.28;100.00
52319;BME280;38258;51.148;14.068;2022-09-17T06:14:56;97318.72;;;8.28;100.00
52319;BME280;38258;51.148;14.068;2022-09-17T06:17:23;97321.44;;;8.25;100.00
52319;BME280;38258;51.148;14.068;2022-09-17T06:19:50;97318.44;;;8.36;100.00
52319;BME280;38258;51.148;14.068;2022-09-17T06:22:18;97326.25;;;8.36;100.00
52319;BME280;38258;51.148;14.068;2022-09-17T06:24:45;97327.25;;;8.33;100.00
52319;BME280;38258;51.148;14.068;2022-09-17T06:27:12;97321.63;;;8.44;100.00
52319;BME280;38258;51.148;14.068;2022-09-17T06:29:40;97322.41;;;8.46;100.00
52319;BME280;38258;51.148;14.068;2022-09-17T06:32:07;97312.31;;;8.37;100.00
52319;BME280;38258;51.148;14.068;2022-09-17T06:34:37;97318.06;;;8.47;100.00
52319;BME280;38258;51.148;14.068;2022-09-17T06:37:04;97314.22;;;8.33;100.00
52319;BME280;38258;51.148;14.068;2022-09-17T06:39:31;97310.34;;;8.44;100.00
52319;BME280;38258;51.148;14.068;2022-09-17T06:41:58;97304.19;;;8.46;100.00
52319;BME280;38258;51.148;14.068;2022-09-17T06:44:27;97315.00;;;8.59;100.00
52319;BME280;38258;51.148;14.068;2022-09-17T06:46:55;97313.09;;;8.65;100.00
52319;BME280;38258;51.148;14.068;2022-09-17T06:49:22;97306.34;;;8.59;100.00
52319;BME280;38258;51.148;14.068;2022-09-17T06:51:49;97304.88;;;8.52;100.00
52319;BME280;38258;51.148;14.068;2022-09-17T06:54:16;97304.13;;;8.48;100.00
52319;BME280;38258;51.148;14.068;2022-09-17T06:56:44;97306.34;;;8.59;100.00
52319;BME280;38258;51.148;14.068;2022-09-17T06:59:11;97303.69;;;8.60;100.00
52319;BME280;38258;51.148;14.068;2022-09-17T07:01:38;97300.19;;;8.61;100.00
52319;BME280;38258;51.148;14.068;2022-09-17T07:04:06;97302.66;;;8.65;100.00
52319;BME280;38258;51.148;14.068;2022-09-17T07:06:33;97306.13;;;8.87;100.00
52319;BME280;38258;51.148;14.068;2022-09-17T07:09:01;97322.88;;;8.82;100.00
52319;BME280;38258;51.148;14.068;2022-09-17T07:11:37;97314.69;;;8.91;100.00
52319;BME280;38258;51.148;14.068;2022-09-17T07:14:04;97317.47;;;8.86;100.00
52319;BME280;38258;51.148;14.068;2022-09-17T07:16:31;97320.22;;;8.83;100.00
52319;BME280;38258;51.148;14.068;2022-09-17T07:19:01;97310.97;;;8.74;100.00
52319;BME280;38258;51.148;14.068;2022-09-17T07:21:29;97321.25;;;8.79;100.00
52319;BME280;38258;51.148;14.068;2022-09-17T07:23:56;97300.59;;;8.73;100.00
52319;BME280;38258;51.148;14.068;2022-09-17T07:26:24;97314.88;;;8.86;100.00
52319;BME280;38258;51.148;14.068;2022-09-17T07:28:50;97318.25;;;8.88;100.00
52319;BME280;38258;51.148;14.068;2022-09-17T07:31:17;97301.97;;;8.83;100.00
52319;BME280;38258;51.148;14.068;2022-09-17T07:33:52;97309.59;;;8.88;100.00
52319;BME280;38258;51.148;14.068;2022-09-17T07:36:19;97320.78;;;8.91;100.00
52319;BME280;38258;51.148;14.068;2022-09-17T07:38:47;97292.06;;;8.69;100.00
52319;BME280;38258;51.148;14.068;2022-09-17T07:41:14;97277.81;;;8.56;100.00
52319;BME280;38258;51.148;14.068;2022-09-17T07:43:42;97338.34;;;8.86;100.00
52319;BME280;38258;51.148;14.068;2022-09-17T07:46:13;97348.78;;;8.86;100.00
52319;BME280;38258;51.148;14.068;2022-09-17T07:48:40;97346.56;;;8.99;100.00
52319;BME280;38258;51.148;14.068;2022-09-17T07:51:07;97354.25;;;9.02;100.00
52319;BME280;38258;51.148;14.068;2022-09-17T07:53:34;97353.97;;;8.86;100.00
52319;BME280;38258;51.148;14.068;2022-09-17T07:56:02;97353.66;;;8.96;100.00
52319;BME280;38258;51.148;14.068;2022-09-17T07:58:30;97358.56;;;9.03;100.00
52319;BME280;38258;51.148;14.068;2022-09-17T08:01:01;97346.84;;;8.91;100.00
52319;BME280;38258;51.148;14.068;2022-09-17T08:03:28;97380.47;;;9.22;100.00
52319;BME280;38258;51.148;14.068;2022-09-17T08:06:00;97386.63;;;9.21;100.00
52319;BME280;38258;51.148;14.068;2022-09-17T08:08:29;97376.22;;;9.19;100.00
52319;BME280;38258;51.148;14.068;2022-09-17T08:11:01;97385.41;;;9.29;100.00
52319;BME280;38258;51.148;14.068;2022-09-17T08:13:30;97387.88;;;9.32;100.00
52319;BME280;38258;51.148;14.068;2022-09-17T08:15:57;97389.88;;;9.26;100.00
52319;BME280;38258;51.148;14.068;2022-09-17T08:18:25;97390.53;;;9.31;100.00
52319;BME280;38258;51.148;14.068;2022-09-17T08:20:54;97394.75;;;9.35;100.00
52319;BME280;38258;51.148;14.068;2022-09-17T08:23:21;97395.53;;;9.37;100.00
52319;BME280;38258;51.148;14.068;2022-09-17T08:25:51;97373.78;;;9.37;100.00
52319;BME280;38258;51.148;14.068;2022-09-17T08:28:23;97314.81;;;8.88;100.00
52319;BME280;38258;51.148;14.068;2022-09-17T08:30:52;97402.88;;;9.50;100.00
52319;BME280;38258;51.148;14.068;2022-09-17T08:33:19;97308.75;;;8.87;100.00
52319;BME280;38258;51.148;14.068;2022-09-17T08:35:50;97365.44;;;9.28;100.00
52319;BME280;38258;51.148;14.068;2022-09-17T08:38:17;97404.63;;;9.49;100.00
52319;BME280;38258;51.148;14.068;2022-09-17T08:40:55;97346.38;;;9.04;100.00
52319;BME280;38258;51.148;14.068;2022-09-17T08:43:27;97394.06;;;9.30;100.00
52319;BME280;38258;51.148;14.068;2022-09-17T08:45:58;97393.59;;;9.42;100.00
52319;BME280;38258;51.148;14.068;2022-09-17T08:48:29;97408.50;;;9.61;100.00
52319;BME280;38258;51.148;14.068;2022-09-17T08:51:00;97375.78;;;9.30;100.00
52319;BME280;38258;51.148;14.068;2022-09-17T08:53:40;97367.03;;;9.53;100.00
52319;BME280;38258;51.148;14.068;2022-09-17T08:56:12;97391.47;;;9.95;100.00
52319;BME280;38258;51.148;14.068;2022-09-17T08:59:01;97403.75;;;9.93;100.00
52319;BME280;38258;51.148;14.068;2022-09-17T09:01:35;97405.03;;;9.83;100.00
52319;BME280;38258;51.148;14.068;2022-09-17T09:04:26;97404.16;;;9.82;100.00
52319;BME280;38258;51.148;14.068;2022-09-17T09:07:00;97406.72;;;9.84;100.00
52319;BME280;38258;51.148;14.068;2022-09-17T09:09:32;97407.69;;;9.81;100.00
52319;BME280;38258;51.148;14.068;2022-09-17T09:12:04;97407.78;;;10.00;100.00
52319;BME280;38258;51.148;14.068;2022-09-17T09:14:34;97400.28;;;10.34;100.00
52319;BME280;38258;51.148;14.068;2022-09-17T09:17:07;97394.66;;;10.02;100.00
52319;BME280;38258;51.148;14.068;2022-09-17T09:19:40;97415.75;;;9.97;100.00
52319;BME280;38258;51.148;14.068;2022-09-17T09:22:20;97393.81;;;9.58;100.00
52319;BME280;38258;51.148;14.068;2022-09-17T09:24:53;97410.31;;;9.81;100.00
52319;BME280;38258;51.148;14.068;2022-09-17T09:27:27;97403.78;;;9.92;100.00
52319;BME280;38258;51.148;14.068;2022-09-17T09:30:38;97389.97;;;9.89;100.00
52319;BME280;38258;51.148;14.068;2022-09-17T09:33:15;97426.03;;;10.02;100.00
52319;BME280;38258;51.148;14.068;2022-09-17T09:35:44;97427.66;;;10.25;100.00
52319;BME280;38258;51.148;14.068;2022-09-17T09:38:17;97346.94;;;9.78;100.00
52319;BME280;38258;51.148;14.068;2022-09-17T09:40:52;97358.47;;;9.93;100.00
52319;BME280;38258;51.148;14.068;2022-09-17T09:43:27;97424.91;;;10.70;100.00
52319;BME280;38258;51.148;14.068;2022-09-17T09:46:22;97420.66;;;11.26;100.00
52319;BME280;38258;51.148;14.068;2022-09-17T09:49:01;97433.69;;;12.37;100.00
52319;BME280;38258;51.148;14.068;2022-09-17T09:51:42;97399.66;;;12.00;100.00
52319;BME280;38258;51.148;14.068;2022-09-17T09:54:29;97425.53;;;11.71;100.00
52319;BME280;38258;51.148;14.068;2022-09-17T09:57:03;97398.97;;;11.42;100.00
52319;BME280;38258;51.148;14.068;2022-09-17T09:59:33;97375.38;;;11.05;100.00
52319;BME280;38258;51.148;14.068;2022-09-17T10:02:01;97432.25;;;11.21;100.00
52319;BME280;38258;51.148;14.068;2022-09-17T10:04:30;97371.47;;;10.75;100.00
52319;BME280;38258;51.148;14.068;2022-09-17T10:07:04;97349.06;;;10.30;100.00
52319;BME280;38258;51.148;14.068;2022-09-17T10:09:32;97441.13;;;10.78;100.00
52319;BME280;38258;51.148;14.068;2022-09-17T10:12:16;97408.41;;;10.28;100.00
52319;BME280;38258;51.148;14.068;2022-09-17T10:14:44;97438.34;;;10.41;100.00
52319;BME280;38258;51.148;14.068;2022-09-17T10:17:20;97424.44;;;10.39;100.00
52319;BME280;38258;51.148;14.068;2022-09-17T10:20:13;97426.06;;;10.43;100.00
52319;BME280;38258;51.148;14.068;2022-09-17T10:22:42;97427.34;;;11.32;100.00
52319;BME280;38258;51.148;14.068;2022-09-17T10:25:40;97415.72;;;11.74;100.00
52319;BME280;38258;51.148;14.068;2022-09-17T10:28:29;97415.25;;;13.22;100.00
52319;BME280;38258;51.148;14.068;2022-09-17T10:30:59;97419.56;;;13.07;100.00
52319;BME280;38258;51.148;14.068;2022-09-17T10:33:28;97392.38;;;13.24;100.00
52319;BME280;38258;51.148;14.068;2022-09-17T10:36:00;97420.59;;;12.70;100.00
52319;BME280;38258;51.148;14.068;2022-09-17T10:38:32;97430.97;;;12.21;100.00
52319;BME280;38258;51.148;14.068;2022-09-17T10:41:12;97382.97;;;11.48;100.00
52319;BME280;38258;51.148;14.068;2022-09-17T10:43:40;97429.38;;;11.44;100.00
52319;BME280;38258;51.148;14.068;2022-09-17T10:46:09;97438.69;;;11.69;100.00
52319;BME280;38258;51.148;14.068;2022-09-17T10:48:41;97407.72;;;12.14;100.00
52319;BME280;38258;51.148;14.068;2022-09-17T10:51:20;97374.50;;;13.14;100.00
52319;BME280;38258;51.148;14.068;2022-09-17T10:54:13;97447.97;;;13.80;100.00
52319;BME280;38258;51.148;14.068;2022-09-17T10:56:48;97354.19;;;12.86;100.00
52319;BME280;38258;51.148;14.068;2022-09-17T10:59:43;97424.97;;;13.20;100.00
52319;BME280;38258;51.148;14.068;2022-09-17T11:05:40;97391.38;;;13.59;100.00
52319;BME280;38258;51.148;14.068;2022-09-17T11:08:16;97421.56;;;12.85;100.00
52319;BME280;38258;51.148;14.068;2022-09-17T11:10:51;97412.47;;;12.06;100.00
52319;BME280;38258;51.148;14.068;2022-09-17T11:13:29;97349.25;;;12.30;100.00
52319;BME280;38258;51.148;14.068;2022-09-17T11:16:21;97394.88;;;12.77;100.00
52319;BME280;38258;51.148;14.068;2022-09-17T11:18:59;97437.88;;;11.86;100.00
52319;BME280;38258;51.148;14.068;2022-09-17T11:21:49;97437.19;;;11.46;100.00
52319;BME280;38258;51.148;14.068;2022-09-17T11:27:40;97433.09;;;11.95;100.00
52319;BME280;38258;51.148;14.068;2022-09-17T11:30:16;97424.00;;;11.84;100.00
52319;BME280;38258;51.148;14.068;2022-09-17T11:32:57;97380.81;;;11.20;100.00
52319;BME280;38258;51.148;14.068;2022-09-17T11:35:31;97420.34;;;11.32;100.00
52319;BME280;38258;51.148;14.068;2022-09-17T11:38:09;97258.06;;;10.38;100.00
52319;BME280;38258;51.148;14.068;2022-09-17T11:40:43;97303.81;;;10.87;100.00
52319;BME280;38258;51.148;14.068;2022-09-17T11:43:21;97406.84;;;12.14;100.00
52319;BME280;38258;51.148;14.068;2022-09-17T11:46:00;97324.56;;;11.28;100.00
52319;BME280;38258;51.148;14.068;2022-09-17T11:48:35;97353.22;;;11.12;100.00
52319;BME280;38258;51.148;14.068;2022-09-17T11:51:15;97411.00;;;11.46;100.00
52319;BME280;38258;51.148;14.068;2022-09-17T11:53:49;97318.88;;;10.82;100.00
52319;BME280;38258;51.148;14.068;2022-09-17T11:56:24;97438.53;;;11.16;100.00
52319;BME280;38258;51.148;14.068;2022-09-17T11:58:57;97384.81;;;11.46;100.00
52319;BME280;38258;51.148;14.068;2022-09-17T12:01:29;97421.00;;;12.63;100.00
52319;BME280;38258;51.148;14.068;2022-09-17T12:04:01;97430.22;;;13.20;100.00
52319;BME280;38258;51.148;14.068;2022-09-17T12:06:37;97429.28;;;13.05;100.00
52319;BME280;38258;51.148;14.068;2022-09-17T12:09:11;97354.16;;;12.70;100.00
52319;BME280;38258;51.148;14.068;2022-09-17T12:11:50;97437.78;;;12.42;100.00
52319;BME280;38258;51.148;14.068;2022-09-17T12:14:23;97428.69;;;11.78;100.00
52319;BME280;38258;51.148;14.068;2022-09-17T12:16:56;97355.84;;;10.93;100.00
52319;BME280;38258;51.148;14.068;2022-09-17T12:19:30;97424.78;;;10.92;100.00
52319;BME280;38258;51.148;14.068;2022-09-17T12:22:03;97436.97;;;10.53;100.00
52319;BME280;38258;51.148;14.068;2022-09-17T12:24:33;97431.34;;;10.42;100.00
52319;BME280;38258;51.148;14.068;2022-09-17T12:27:21;97439.25;;;10.40;100.00
52319;BME280;38258;51.148;14.068;2022-09-17T12:30:10;97438.50;;;10.16;100.00
52319;BME280;38258;51.148;14.068;2022-09-17T12:32:56;97376.09;;;10.08;100.00
52319;BME280;38258;51.148;14.068;2022-09-17T12:35:48;97449.13;;;10.54;100.00
52319;BME280;38258;51.148;14.068;2022-09-17T12:38:28;97412.31;;;10.59;100.00
52319;BME280;38258;51.148;14.068;2022-09-17T12:41:02;97412.69;;;11.09;100.00
52319;BME280;38258;51.148;14.068;2022-09-17T12:43:54;97389.91;;;11.67;100.00
52319;BME280;38258;51.148;14.068;2022-09-17T12:46:37;97423.25;;;12.00;100.00
52319;BME280;38258;51.148;14.068;2022-09-17T12:49:31;97322.06;;;11.62;100.00
52319;BME280;38258;51.148;14.068;2022-09-17T12:52:05;97301.44;;;11.19;100.00
52319;BME280;38258;51.148;14.068;2022-09-17T12:55:03;97412.81;;;11.63;100.00
52319;BME280;38258;51.148;14.068;2022-09-17T12:57:42;97368.50;;;11.58;100.00
52319;BME280;38258;51.148;14.068;2022-09-17T13:00:16;97404.94;;;11.63;100.00
52319;BME280;38258;51.148;14.068;2022-09-17T13:02:47;97398.97;;;11.42;100.00
52319;BME280;38258;51.148;14.068;2022-09-17T13:05:44;97415.34;;;11.65;100.00
52319;BME280;38258;51.148;14.068;2022-09-17T13:08:45;97350.81;;;12.16;100.00
52319;BME280;38258;51.148;14.068;2022-09-17T13:11:35;97394.06;;;13.09;100.00
52319;BME280;38258;51.148;14.068;2022-09-17T13:14:16;97365.81;;;12.64;100.00
52319;BME280;38258;51.148;14.068;2022-09-17T13:16:51;97310.63;;;12.50;100.00
52319;BME280;38258;51.148;14.068;2022-09-17T13:19:29;97407.22;;;13.73;100.00
52319;BME280;38258;51.148;14.068;2022-09-17T13:22:00;97397.13;;;13.96;100.00
52319;BME280;38258;51.148;14.068;2022-09-17T13:24:29;97313.72;;;12.90;100.00
52319;BME280;38258;51.148;14.068;2022-09-17T13:26:59;97252.63;;;11.53;100.00